Terminal Aerodrome Forecast
Issued by NWS

Home | Current Version | Previous Version | Text Only | Print | Product List | Glossary On
Versions: 1 2 3 4 5 6 7 8 9 10 11 12 13 14 15 16 17 18 19
000
FTUS45 KMSO 191737
TAFSMN
TAF
KSMN 191737Z 1918/2018 00000KT P6SM OVC080
     FM192200 VRB03KT P6SM VCSH OVC050
     FM200000 VRB03KT 4SM -SN BR OVC030
     FM200200 00000KT P6SM VCSH OVC050
      AMD LTD TO CLD VIS AND WIND=

USA.gov is the U.S. government's official web portal to all federal, state and local government web resources and services.